• Join FlightAware (Why Join?)
  • Login
  • US Flag 
01:27AM EDT


 

Airport Tracker/Info


-or-


 

Live Flight TrackerFlight Track Log ✈ DLH1365 ✈ 30-Apr-2012 ✈ EPKK / KRK - EDDF / FRA

Flight Track Log - Related Links

Times and Time Zones

All times are in EDT time to prevent confusion due to time zone crossing. See the DLH1365 flight status page for this flight to view local times or setup timezone preferences in your user account.

Time Position Orientation Groundspeed Altitude Reporting Facility
EDT Latitude Longitude Course Direction KTS MPH feet Rate Location/Type
05:07AM 50.0794 19.7464 274° West  Level Estimated
05:08AM 50.0860 19.5928 274° West  Level Estimated
05:09AM 50.0924 19.4390 274° West  Level Estimated
05:10AM 50.0986 19.2853 274° West  Level Estimated
05:11AM 50.1045 19.1315 273° West  Level Estimated
05:12AM 50.1103 18.9777 273° West  Level Estimated
05:13AM 50.1159 18.8238 273° West  Level Estimated
05:14AM 50.1213 18.6699 273° West  Level Estimated
05:15AM 50.1264 18.5160 273° West  Level Estimated
05:16AM 50.1314 18.3620 273° West  Level Estimated
05:17AM 50.1361 18.2080 273° West  Level Estimated
05:18AM 50.1407 18.0540 273° West  Level Estimated
05:19AM 50.1450 17.8999 272° West  Level Estimated
05:20AM 50.1492 17.7458 272° West  Level Estimated
05:21AM 50.1531 17.5917 272° West  Level Estimated
05:22AM 50.1568 17.4376 272° West  Level Estimated
05:23AM 50.1604 17.2834 272° West  Level Estimated
05:24AM 50.1637 17.1292 272° West  Level Estimated
05:25AM 50.1668 16.9750 272° West  Level Estimated
05:26AM 50.1698 16.8208 272° West  Level Estimated
05:27AM 50.1725 16.6666 272° West  Level Estimated
05:28AM 50.1750 16.5123 271° West  Level Estimated
05:29AM 50.1773 16.3581 271° West  Level Estimated
05:30AM 50.1794 16.2038 271° West  Level Estimated
05:31AM 50.1813 16.0495 271° West  Level Estimated
05:32AM 50.1830 15.8952 271° West  Level Estimated
05:33AM 50.1845 15.7408 271° West  Level Estimated
05:34AM 50.1858 15.5865 271° West  Level Estimated
05:35AM 50.1868 15.4322 271° West  Level Estimated
05:36AM 50.1877 15.2778 270° West  Level Estimated
05:37AM 50.1884 15.1235 270° West  Level Estimated
05:38AM 50.1889 14.9691 270° West  Level Estimated
05:39AM 50.1891 14.8148 270° West  Level Estimated
05:40AM 50.1892 14.6604 270° West  Level Estimated
05:41AM 50.1890 14.5061 270° West  Level Estimated
05:42AM 50.1887 14.3517 270° West  Level Estimated
05:43AM 50.1881 14.1973 270° West  Level Estimated
05:44AM 50.1874 14.0430 269° West  Level Estimated
05:45AM 50.1864 13.8887 269° West  Level Estimated
05:46AM 50.1852 13.7343 269° West  Level Estimated
05:47AM 50.1838 13.5800 269° West  Level Estimated
05:48AM 50.1823 13.4257 269° West  Level Estimated
05:49AM 50.1805 13.2714 269° West  Level Estimated
05:50AM 50.1785 13.1171 269° West  Level Estimated
05:51AM 50.1763 12.9628 269° West  Level Estimated
05:52AM 50.1739 12.8085 269° West  Level Estimated
05:53AM 50.1713 12.6543 268° West  Level Estimated
05:54AM 50.1685 12.5000 268° West  Level Estimated
05:55AM 50.1655 12.3458 268° West  Level Estimated
05:56AM 50.1623 12.1917 268° West  Level Estimated
05:57AM 50.1589 12.0375 268° West  Level Estimated
05:58AM 50.1553 11.8833 268° West  Level Estimated
05:59AM 50.1518 11.7427 268° West  Level Estimated
06:00AM 50.1481 11.6021 268° West  Level Estimated
06:01AM 50.1443 11.4615 268° West  Level Estimated
06:02AM 50.1403 11.3209 267° West  Level Estimated
06:03AM 50.1362 11.1804 267° West  Level Estimated
06:04AM 50.1318 11.0398 267° West  Level Estimated
06:05AM 50.1273 10.8993 267° West  Level Estimated
06:06AM 50.1227 10.7589 267° West  Level Estimated
06:07AM 50.1178 10.6184 267° West  Level Estimated
06:08AM 50.1128 10.4780 267° West  Level Estimated
06:09AM 50.1076 10.3376 267° West  Level Estimated
06:10AM 50.1023 10.1973 267° West  Level Estimated
06:11AM 50.0968 10.0569 266° West  Level Estimated
06:12AM 50.0911 9.9166 266° West  Level Estimated
06:13AM 50.0852 9.7764 266° West  Level Estimated
06:14AM 50.0792 9.6362 266° West  Level Estimated
06:15AM 50.0730 9.4960 266° West  Level Estimated
06:16AM 50.0667 9.3558 266° West  Level Estimated
06:17AM 50.0601 9.2157 266° West  Level Estimated
06:18AM 50.0534 9.0757 266° West  Level Estimated
06:19AM 50.0466 8.9356 266° West  Level Estimated
06:20AM 50.0395 8.7956 265° West  Level Estimated
06:21AM 50.0323 8.6557 265° West  Level Estimated
06:22AM 50.0250 8.5158 85° East  Level Estimated
06:23AM 50.0323 8.6557 265° West  Level Estimated
06:24AM 50.0250 8.5158 85° East  Level Estimated
06:25AM 50.0323 8.6557 265° West  Level Estimated
06:26AM 50.0250 8.5158 85° East  Level Estimated
06:27AM 50.0323 8.6557 265° West  Level Estimated
06:28AM 50.0250 8.5158 85° East  Level Estimated
06:29AM 50.0323 8.6557 265° West  Level Estimated
06:30AM 50.0250 8.5158 85° East  Level Estimated
06:31AM 50.0323 8.6557 265° West  Level Estimated
06:32AM 50.0250 8.5158 85° East  Level Estimated
06:33AM 50.0323 8.6557 265° West  Level Estimated
06:34AM 50.0250 8.5158 85° East  Level Estimated
06:35AM 50.0323 8.6557 265° West  Level Estimated
06:36AM 50.0250 8.5158 85° East  Level Estimated
06:37AM 50.0323 8.6557 265° West  Level Estimated
06:38AM 50.0250 8.5158 85° East  Level Estimated
06:39AM 50.0323 8.6557 265° West  Level Estimated
06:40AM 50.0250 8.5158 265° West  Level Estimated